Time;durP1;ratioP1;P1;durP2;ratioP2;P2;SDS_P1;SDS_P2;PMS_P1;PMS_P2;Temp;Humidity;BMP_temperature;BMP_pressure;BME280_temperature;BME280_humidity;BME280_pressure;Samples;Min_cycle;Max_cycle;Signal;HPM_P1;HPM_P2
2022/04/06 00:00:05;;;;;;;3.57;2.83;;;9.90;99.90;;;;;;4998862;28;20834;-76
2022/04/06 00:02:32;;;;;;;3.00;2.70;;;9.90;99.90;;;;;;4999350;28;20213;-76
2022/04/06 00:05:00;;;;;;;2.97;2.77;;;9.90;99.90;;;;;;4998982;28;20205;-77
2022/04/06 00:07:27;;;;;;;2.93;2.73;;;9.90;99.90;;;;;;5001026;28;20219;-76
2022/04/06 00:09:54;;;;;;;2.83;2.63;;;9.90;99.90;;;;;;5003940;28;20312;-76
2022/04/06 00:12:22;;;;;;;3.20;2.90;;;9.90;99.90;;;;;;5008311;28;20208;-76
2022/04/06 00:14:49;;;;;;;2.97;2.67;;;9.90;99.90;;;;;;5011539;28;20189;-76
2022/04/06 00:17:16;;;;;;;3.03;2.83;;;9.90;99.90;;;;;;5000564;28;20552;-76
2022/04/06 00:19:43;;;;;;;3.00;2.70;;;9.90;99.90;;;;;;5001968;28;20584;-76
2022/04/06 00:22:10;;;;;;;2.90;2.70;;;9.90;99.90;;;;;;5000113;28;20200;-76
2022/04/06 00:24:37;;;;;;;3.03;2.73;;;9.90;99.90;;;;;;4991641;28;20200;-76
2022/04/06 00:27:04;;;;;;;2.80;2.60;;;9.80;99.90;;;;;;5002810;28;20243;-76
2022/04/06 00:29:33;;;;;;;2.93;2.73;;;9.80;99.90;;;;;;4994567;28;20220;-76
2022/04/06 00:32:00;;;;;;;2.93;2.73;;;9.80;99.90;;;;;;4999239;28;20607;-75
2022/04/06 00:37:07;;;;;;;2.90;2.70;;;9.80;99.90;;;;;;4994528;28;20190;-75
2022/04/06 00:39:34;;;;;;;3.87;3.43;;;9.80;99.90;;;;;;5001981;28;20220;-76
2022/04/06 00:42:01;;;;;;;3.27;2.97;;;9.80;99.90;;;;;;5002099;28;20201;-76
2022/04/06 00:44:28;;;;;;;3.30;3.00;;;9.80;99.90;;;;;;5004117;28;20225;-75
2022/04/06 00:46:56;;;;;;;4.33;3.63;;;9.70;99.90;;;;;;5003268;28;20611;-76
2022/04/06 00:49:23;;;;;;;2.90;2.70;;;9.80;99.90;;;;;;5005610;28;20220;-76
2022/04/06 00:51:50;;;;;;;4.23;3.20;;;9.80;99.90;;;;;;5000278;28;20254;-76
2022/04/06 00:54:19;;;;;;;4.23;3.30;;;9.70;99.90;;;;;;4998325;28;20244;-76
2022/04/06 00:56:47;;;;;;;3.60;3.30;;;9.80;99.90;;;;;;5000766;28;20212;-76
2022/04/06 00:59:16;;;;;;;3.80;3.40;;;9.80;99.90;;;;;;5003188;28;20221;-76
2022/04/06 01:01:45;;;;;;;3.40;3.10;;;9.80;99.90;;;;;;5006240;28;20235;-76
2022/04/06 01:04:13;;;;;;;3.20;2.90;;;9.80;99.90;;;;;;4999555;28;20252;-76
2022/04/06 01:06:40;;;;;;;3.40;3.07;;;9.80;99.90;;;;;;5003913;28;20201;-76
2022/04/06 01:09:07;;;;;;;3.17;2.87;;;9.80;99.90;;;;;;5003124;28;20217;-76
2022/04/06 01:11:34;;;;;;;2.97;2.73;;;9.80;99.90;;;;;;5014174;28;20207;-76
2022/04/06 01:14:02;;;;;;;3.30;3.00;;;9.70;99.90;;;;;;5005317;28;20221;-76
2022/04/06 01:16:29;;;;;;;3.30;3.00;;;9.80;99.90;;;;;;4997684;28;20201;-76
2022/04/06 01:18:56;;;;;;;3.40;3.10;;;9.80;99.90;;;;;;5008771;23;20289;-77
2022/04/06 01:21:24;;;;;;;3.33;3.07;;;9.80;99.90;;;;;;4947515;28;20613;-78
2022/04/06 01:23:52;;;;;;;3.20;2.90;;;9.80;99.90;;;;;;4947370;29;20636;-77
2022/04/06 01:26:20;;;;;;;4.37;2.90;;;9.80;99.90;;;;;;4945694;28;20202;-75
2022/04/06 01:28:47;;;;;;;4.17;3.10;;;9.80;99.90;;;;;;4937450;29;20222;-75
2022/04/06 01:31:14;;;;;;;2.97;2.77;;;9.80;99.90;;;;;;4923429;29;20192;-77
2022/04/06 01:33:41;;;;;;;3.33;3.10;;;9.80;99.90;;;;;;4925827;29;20626;-76
2022/04/06 01:36:09;;;;;;;3.40;2.77;;;9.80;99.90;;;;;;4921154;29;20287;-76
2022/04/06 01:38:36;;;;;;;3.03;2.77;;;9.80;99.90;;;;;;4925611;29;20780;-76
2022/04/06 01:41:04;;;;;;;4.60;3.60;;;9.70;99.90;;;;;;4925261;29;20281;-77
2022/04/06 01:43:31;;;;;;;3.83;3.17;;;9.80;99.90;;;;;;4921351;29;20230;-75
2022/04/06 01:45:59;;;;;;;3.50;3.20;;;9.70;99.90;;;;;;4923221;29;20430;-78
2022/04/06 01:48:26;;;;;;;3.87;3.47;;;9.80;99.90;;;;;;4927175;29;20227;-77
2022/04/06 01:53:37;;;;;;;4.13;3.70;;;9.70;99.90;;;;;;4928379;29;20198;-78
2022/04/06 01:56:05;;;;;;;4.70;4.00;;;9.70;99.90;;;;;;4924252;29;20196;-78
2022/04/06 01:58:32;;;;;;;3.60;3.30;;;9.70;99.90;;;;;;4928166;29;20216;-75
2022/04/06 02:00:59;;;;;;;4.07;3.67;;;9.70;99.90;;;;;;4925663;29;20203;-77
2022/04/06 02:03:26;;;;;;;8.67;7.97;;;9.70;99.90;;;;;;4921069;29;20266;-78
2022/04/06 02:05:53;;;;;;;4.27;3.87;;;9.70;99.90;;;;;;4923825;29;20207;-75
2022/04/06 02:08:19;;;;;;;3.70;3.40;;;9.70;99.90;;;;;;4925769;29;20721;-76
2022/04/06 02:10:46;;;;;;;4.03;3.53;;;9.70;99.90;;;;;;4926385;29;20191;-75
2022/04/06 02:13:15;;;;;;;3.87;3.47;;;9.70;99.90;;;;;;4924929;29;20654;-76
2022/04/06 02:15:42;;;;;;;3.87;3.47;;;9.70;99.90;;;;;;4925304;29;20207;-77
2022/04/06 02:18:09;;;;;;;3.87;3.50;;;9.80;99.90;;;;;;4926455;29;20199;-78
2022/04/06 02:20:36;;;;;;;4.30;3.60;;;9.70;99.90;;;;;;4921224;29;20199;-77
2022/04/06 02:23:03;;;;;;;3.43;3.13;;;9.70;99.90;;;;;;4922185;29;20228;-77
2022/04/06 02:25:30;;;;;;;3.87;3.13;;;9.70;99.90;;;;;;4927047;29;20243;-76
2022/04/06 02:27:57;;;;;;;3.33;3.00;;;9.70;99.90;;;;;;4923600;29;20263;-76
2022/04/06 02:30:25;;;;;;;3.30;3.00;;;9.70;99.90;;;;;;4925430;29;20222;-76
2022/04/06 02:32:52;;;;;;;2.80;2.60;;;9.70;99.90;;;;;;4923664;29;20247;-76
2022/04/06 02:35:19;;;;;;;3.40;3.10;;;9.70;99.90;;;;;;4921628;29;20223;-76
2022/04/06 02:37:47;;;;;;;3.40;2.80;;;9.70;99.90;;;;;;4922624;29;20255;-75
2022/04/06 02:40:15;;;;;;;2.93;2.70;;;9.70;99.90;;;;;;4927321;29;20215;-77
2022/04/06 02:42:43;;;;;;;2.80;2.60;;;9.70;99.90;;;;;;4931007;29;20187;-81
2022/04/06 02:45:10;;;;;;;2.97;2.77;;;9.70;99.90;;;;;;4916782;29;20291;-80
2022/04/06 02:47:38;;;;;;;2.93;2.73;;;9.70;99.90;;;;;;4935987;29;20259;-80
2022/04/06 02:50:06;;;;;;;8.27;7.70;;;9.70;99.90;;;;;;4917338;29;20224;-77
2022/04/06 02:52:33;;;;;;;6.17;5.73;;;9.70;99.90;;;;;;4918327;29;20292;-79
2022/04/06 02:55:00;;;;;;;5.60;5.10;;;9.70;99.90;;;;;;4941541;29;20203;-80
2022/04/06 02:57:27;;;;;;;9.40;8.80;;;9.70;99.90;;;;;;4926219;29;20627;-80
2022/04/06 02:59:53;;;;;;;7.20;6.70;;;9.70;99.90;;;;;;4927021;29;20267;-79
2022/04/06 03:02:20;;;;;;;8.57;7.93;;;9.70;99.90;;;;;;4926933;29;20203;-80
2022/04/06 03:04:48;;;;;;;7.50;7.00;;;9.70;99.90;;;;;;4925906;29;20223;-80
2022/04/06 03:07:19;;;;;;;7.00;6.50;;;9.70;99.90;;;;;;4911754;29;20200;-80
2022/04/06 03:09:46;;;;;;;6.10;5.60;;;9.70;99.90;;;;;;4939344;29;20262;-79
2022/04/06 03:12:13;;;;;;;6.97;6.47;;;9.70;99.90;;;;;;4926683;29;20656;-81
2022/04/06 03:14:40;;;;;;;7.83;7.33;;;9.70;99.90;;;;;;4917829;29;20191;-83
2022/04/06 03:17:07;;;;;;;4.97;4.10;;;9.60;99.90;;;;;;4916588;29;20204;-80
2022/04/06 03:19:35;;;;;;;4.30;3.90;;;9.70;99.90;;;;;;4914577;29;20235;-81
2022/04/06 03:22:04;;;;;;;4.67;4.20;;;9.70;99.90;;;;;;4931597;29;20196;-77
2022/04/06 03:24:31;;;;;;;6.80;6.30;;;9.70;99.90;;;;;;4926076;29;20227;-78
2022/04/06 03:26:58;;;;;;;7.00;6.43;;;9.70;99.90;;;;;;4927802;29;20262;-77
2022/04/06 03:29:25;;;;;;;6.83;6.20;;;9.70;99.90;;;;;;4922468;29;20612;-79
2022/04/06 03:31:52;;;;;;;5.23;4.73;;;9.70;99.90;;;;;;4922970;29;20195;-78
2022/04/06 03:34:22;;;;;;;4.50;4.10;;;9.70;99.90;;;;;;4925694;29;20734;-78
2022/04/06 03:36:48;;;;;;;6.53;5.97;;;9.70;99.90;;;;;;4922808;29;20204;-78
2022/04/06 03:39:17;;;;;;;5.03;4.53;;;9.70;99.90;;;;;;4923248;29;20242;-78
2022/04/06 03:41:44;;;;;;;5.00;4.47;;;9.70;99.90;;;;;;4925028;29;20203;-79
2022/04/06 03:44:11;;;;;;;4.80;4.10;;;9.70;99.90;;;;;;4921896;29;20220;-77
2022/04/06 03:46:37;;;;;;;6.70;6.10;;;9.70;99.90;;;;;;4926036;29;20211;-77
2022/04/06 03:49:04;;;;;;;9.70;8.90;;;9.60;99.90;;;;;;4921749;29;20227;-77
2022/04/06 03:51:31;;;;;;;10.73;10.03;;;9.60;99.90;;;;;;4922469;29;20214;-78
2022/04/06 03:53:58;;;;;;;10.60;9.90;;;9.70;99.90;;;;;;4931169;29;20191;-78
2022/04/06 03:56:27;;;;;;;9.83;9.13;;;9.60;99.90;;;;;;4927851;29;20199;-78
2022/04/06 03:58:53;;;;;;;10.60;9.80;;;9.60;99.90;;;;;;4924560;29;20311;-79
2022/04/06 04:01:20;;;;;;;12.33;11.53;;;9.60;99.90;;;;;;4933027;29;20589;-78
2022/04/06 04:03:47;;;;;;;9.70;9.00;;;9.60;99.90;;;;;;4934687;29;20219;-78
2022/04/06 04:06:14;;;;;;;10.67;9.97;;;9.60;99.90;;;;;;4937764;29;20611;-78
2022/04/06 04:08:41;;;;;;;9.90;9.20;;;9.60;99.90;;;;;;4928791;29;20230;-78
2022/04/06 04:11:08;;;;;;;9.90;9.20;;;9.60;99.90;;;;;;4923421;29;20207;-79
2022/04/06 04:13:36;;;;;;;10.00;9.30;;;9.60;99.90;;;;;;4927115;29;20223;-77
2022/04/06 04:16:03;;;;;;;11.30;10.40;;;9.60;99.90;;;;;;4927519;29;20208;-77
2022/04/06 04:18:30;;;;;;;9.83;9.23;;;9.60;99.90;;;;;;4944305;29;20235;-76
2022/04/06 04:23:38;;;;;;;9.93;9.13;;;9.70;99.90;;;;;;4931714;29;20226;-78
2022/04/06 04:26:04;;;;;;;8.43;7.83;;;9.60;99.90;;;;;;4932619;29;20234;-79
2022/04/06 04:28:31;;;;;;;9.20;8.53;;;9.70;99.90;;;;;;4928496;29;20251;-78
2022/04/06 04:30:59;;;;;;;9.87;9.07;;;9.70;99.90;;;;;;4929022;29;20233;-75
2022/04/06 04:33:26;;;;;;;11.50;10.50;;;9.70;99.90;;;;;;4932090;29;20263;-79
2022/04/06 04:35:53;;;;;;;12.43;11.50;;;9.70;99.90;;;;;;4928915;29;20251;-78
2022/04/06 04:38:20;;;;;;;12.03;11.23;;;9.70;99.90;;;;;;4925083;29;20582;-78
2022/04/06 04:40:47;;;;;;;10.37;9.57;;;9.70;99.90;;;;;;4928529;29;20192;-80
2022/04/06 04:43:13;;;;;;;11.37;10.57;;;9.70;99.90;;;;;;4928652;29;20210;-78
2022/04/06 04:45:40;;;;;;;10.00;9.40;;;9.70;99.90;;;;;;4924505;29;20216;-79
2022/04/06 04:48:08;;;;;;;10.83;10.00;;;9.80;99.90;;;;;;4928332;29;20208;-79
2022/04/06 04:50:35;;;;;;;10.67;9.87;;;9.70;99.90;;;;;;4931313;29;20207;-78
2022/04/06 04:53:02;;;;;;;10.07;9.37;;;9.70;99.90;;;;;;4931213;29;20199;-78
2022/04/06 04:55:29;;;;;;;10.07;9.37;;;9.80;99.90;;;;;;4926560;29;20570;-78
2022/04/06 04:57:56;;;;;;;11.20;10.50;;;9.80;99.90;;;;;;4927236;29;20221;-78
2022/04/06 05:00:23;;;;;;;10.70;10.00;;;9.70;99.90;;;;;;4930030;29;20212;-78
2022/04/06 05:02:49;;;;;;;10.10;9.40;;;9.70;99.90;;;;;;4929731;29;20224;-79
2022/04/06 05:05:18;;;;;;;10.00;9.30;;;9.70;99.90;;;;;;4930680;29;20656;-79
2022/04/06 05:07:44;;;;;;;11.03;10.23;;;9.70;99.90;;;;;;4929525;29;20250;-79
2022/04/06 05:10:11;;;;;;;9.60;9.00;;;9.80;99.90;;;;;;4924241;29;20582;-78
2022/04/06 05:12:38;;;;;;;9.63;9.03;;;9.80;99.90;;;;;;4930761;29;20286;-78
2022/04/06 05:15:07;;;;;;;9.70;9.00;;;9.80;99.90;;;;;;4927456;29;20200;-78
2022/04/06 05:17:34;;;;;;;9.47;8.87;;;9.80;99.90;;;;;;4932002;29;20592;-77
2022/04/06 05:20:01;;;;;;;11.17;10.47;;;9.80;99.90;;;;;;4931914;29;20314;-78
2022/04/06 05:22:30;;;;;;;10.30;9.60;;;9.80;99.90;;;;;;4928283;29;20210;-78
2022/04/06 05:24:56;;;;;;;9.90;9.30;;;9.90;99.90;;;;;;4927633;29;20231;-78
2022/04/06 05:27:23;;;;;;;10.00;9.30;;;9.90;99.90;;;;;;4924105;29;20216;-78
2022/04/06 05:29:50;;;;;;;10.37;9.57;;;9.90;99.90;;;;;;4926445;29;20219;-78
2022/04/06 05:32:17;;;;;;;9.20;8.57;;;9.90;99.90;;;;;;4927900;29;20204;-78
2022/04/06 05:34:43;;;;;;;9.80;9.10;;;9.90;99.90;;;;;;4931771;29;20605;-78
2022/04/06 05:37:10;;;;;;;10.07;9.37;;;9.90;99.90;;;;;;4939906;29;20248;-78
2022/04/06 05:39:38;;;;;;;10.67;9.93;;;9.90;99.90;;;;;;4938358;29;20220;-78
2022/04/06 05:42:06;;;;;;;9.93;9.23;;;9.90;99.90;;;;;;4939777;29;20744;-78
2022/04/06 05:44:34;;;;;;;9.97;9.37;;;9.90;99.90;;;;;;4938776;29;20231;-78
2022/04/06 05:47:01;;;;;;;9.53;8.93;;;9.90;99.90;;;;;;4938502;29;20187;-78
2022/04/06 05:49:28;;;;;;;10.17;9.47;;;9.90;99.90;;;;;;4927142;29;20456;-78
2022/04/06 05:51:54;;;;;;;9.40;8.80;;;9.90;99.90;;;;;;4927756;29;20207;-78
2022/04/06 05:54:21;;;;;;;10.73;9.83;;;10.00;99.90;;;;;;4930365;29;20244;-77
2022/04/06 05:56:49;;;;;;;9.07;8.47;;;10.00;99.90;;;;;;4928776;29;20684;-78
2022/04/06 05:59:16;;;;;;;9.83;9.13;;;10.00;99.90;;;;;;4927176;29;20216;-78
2022/04/06 06:01:43;;;;;;;9.33;8.73;;;10.00;99.90;;;;;;4928167;29;20196;-78
2022/04/06 06:04:10;;;;;;;9.73;9.03;;;10.10;99.90;;;;;;4928741;29;20223;-79
2022/04/06 06:06:36;;;;;;;9.77;9.00;;;10.00;99.90;;;;;;4915329;29;20199;-79
2022/04/06 06:09:04;;;;;;;10.07;9.30;;;10.10;99.90;;;;;;4924724;29;20215;-78
2022/04/06 06:11:33;;;;;;;9.63;8.97;;;10.10;99.90;;;;;;4930209;29;20263;-78
2022/04/06 06:14:01;;;;;;;9.50;8.90;;;10.10;99.90;;;;;;4928449;29;20187;-78
2022/04/06 06:16:28;;;;;;;9.40;8.80;;;10.20;99.90;;;;;;4931043;29;20196;-78
2022/04/06 06:18:56;;;;;;;9.50;8.90;;;10.30;99.90;;;;;;4928676;29;20314;-79
2022/04/06 06:21:26;;;;;;;9.30;8.70;;;10.30;99.90;;;;;;4929632;29;20596;-77
2022/04/06 06:23:54;;;;;;;9.70;9.10;;;10.40;99.90;;;;;;4926956;29;20263;-79
2022/04/06 06:26:21;;;;;;;10.27;9.47;;;10.50;99.90;;;;;;4924320;29;20215;-79
2022/04/06 06:28:48;;;;;;;9.37;8.77;;;10.60;99.90;;;;;;4926447;29;20227;-78
2022/04/06 06:31:16;;;;;;;8.00;7.40;;;10.60;99.90;;;;;;4927797;29;20685;-78
2022/04/06 06:33:42;;;;;;;4.77;4.37;;;10.70;99.90;;;;;;4927857;29;20192;-79
2022/04/06 06:36:09;;;;;;;9.53;8.93;;;10.80;99.90;;;;;;4926381;29;20200;-78
2022/04/06 06:38:36;;;;;;;4.13;3.83;;;10.80;99.90;;;;;;4945523;28;20221;-79
2022/04/06 06:41:03;;;;;;;9.03;8.43;;;10.90;99.90;;;;;;4930452;29;20203;-78
2022/04/06 06:43:30;;;;;;;9.67;8.97;;;10.90;99.90;;;;;;4925726;29;20204;-77
2022/04/06 06:45:57;;;;;;;8.40;7.70;;;10.90;99.90;;;;;;4926979;29;20664;-78
2022/04/06 06:48:25;;;;;;;4.73;4.10;;;10.90;99.90;;;;;;4927703;29;20212;-78
2022/04/06 06:50:52;;;;;;;7.50;4.93;;;10.90;99.90;;;;;;4926715;29;20199;-79
2022/04/06 06:53:19;;;;;;;5.67;5.27;;;10.90;99.90;;;;;;4928661;29;20259;-78
2022/04/06 06:55:46;;;;;;;6.80;6.20;;;10.90;99.90;;;;;;4924771;29;20192;-78
2022/04/06 06:58:13;;;;;;;4.80;4.40;;;11.00;99.90;;;;;;4921980;29;20214;-78
2022/04/06 07:00:40;;;;;;;8.53;7.93;;;11.00;99.90;;;;;;4944321;28;20195;-79
2022/04/06 07:03:06;;;;;;;8.57;7.97;;;11.10;99.90;;;;;;4927372;29;20218;-78
2022/04/06 07:05:34;;;;;;;7.60;7.10;;;11.20;99.90;;;;;;4930175;29;20451;-79
2022/04/06 07:08:01;;;;;;;7.30;6.80;;;11.20;99.90;;;;;;4925808;29;20224;-77
2022/04/06 07:10:29;;;;;;;7.63;7.13;;;11.20;99.90;;;;;;4930951;29;20653;-77
2022/04/06 07:12:57;;;;;;;7.63;7.13;;;11.20;99.90;;;;;;4928983;29;20223;-77
2022/04/06 07:15:24;;;;;;;8.17;7.57;;;11.30;99.90;;;;;;4923228;29;20205;-80
2022/04/06 07:17:52;;;;;;;7.63;7.13;;;11.30;99.90;;;;;;4926558;29;20228;-78
2022/04/06 07:20:19;;;;;;;7.50;7.00;;;11.40;99.90;;;;;;4996534;23;20259;-79
2022/04/06 07:22:47;;;;;;;7.30;6.80;;;11.40;99.90;;;;;;4984672;28;20229;-78
2022/04/06 07:25:14;;;;;;;9.47;8.87;;;11.50;99.90;;;;;;4984395;28;20227;-79
2022/04/06 07:27:41;;;;;;;5.50;5.10;;;11.50;99.90;;;;;;4984012;28;20199;-78
2022/04/06 07:30:10;;;;;;;3.73;2.73;;;11.50;99.90;;;;;;4988073;28;20229;-79
2022/04/06 07:32:37;;;;;;;8.20;7.70;;;11.50;99.90;;;;;;4969092;28;20208;-79
2022/04/06 07:35:04;;;;;;;4.60;4.30;;;11.60;99.90;;;;;;4985826;28;20204;-79
2022/04/06 07:37:36;;;;;;;4.33;4.13;;;11.70;99.90;;;;;;4984485;28;20686;-78
2022/04/06 07:40:05;;;;;;;4.37;4.03;;;11.70;99.90;;;;;;4980831;28;20209;-80
2022/04/06 07:42:33;;;;;;;8.10;7.40;;;11.70;99.90;;;;;;4977099;28;20229;-79
2022/04/06 07:45:00;;;;;;;3.77;3.57;;;11.70;99.90;;;;;;4987286;28;20216;-78
2022/04/06 07:47:30;;;;;;;4.90;4.43;;;11.80;99.90;;;;;;4984400;28;20202;-79
2022/04/06 07:49:57;;;;;;;4.73;4.33;;;11.80;99.90;;;;;;4988032;28;20233;-78
2022/04/06 07:52:24;;;;;;;4.30;4.00;;;11.80;99.90;;;;;;4992073;28;20307;-78
2022/04/06 07:54:51;;;;;;;9.57;9.03;;;11.80;99.90;;;;;;4983684;28;20239;-79
2022/04/06 07:57:22;;;;;;;8.03;7.53;;;11.90;99.90;;;;;;4981192;28;20195;-78
2022/04/06 07:59:49;;;;;;;4.00;3.80;;;11.80;99.90;;;;;;4980332;28;20224;-79
2022/04/06 08:02:16;;;;;;;6.53;6.13;;;11.90;99.90;;;;;;4986467;28;20206;-79
2022/04/06 08:04:44;;;;;;;4.37;4.07;;;12.00;99.90;;;;;;4989802;28;20245;-77
2022/04/06 08:07:11;;;;;;;4.40;4.10;;;12.00;99.90;;;;;;4987906;28;20201;-79
2022/04/06 08:09:38;;;;;;;5.03;4.70;;;12.10;99.90;;;;;;4979379;28;20659;-78
2022/04/06 08:12:05;;;;;;;4.10;3.90;;;12.20;99.90;;;;;;4987520;28;20198;-78
2022/04/06 08:14:34;;;;;;;4.30;3.90;;;12.40;99.90;;;;;;4989224;28;20580;-78
2022/04/06 08:17:01;;;;;;;7.50;7.10;;;12.50;99.90;;;;;;4984919;28;20199;-79
2022/04/06 08:19:28;;;;;;;3.80;3.60;;;12.50;99.90;;;;;;4987013;28;20308;-78
2022/04/06 08:21:54;;;;;;;3.60;3.40;;;12.60;99.90;;;;;;4985573;28;20207;-79
2022/04/06 08:24:21;;;;;;;3.80;3.60;;;12.70;99.90;;;;;;4972234;28;20200;-76
2022/04/06 08:26:48;;;;;;;3.10;2.90;;;12.70;99.90;;;;;;4986299;28;20769;-78
2022/04/06 08:29:15;;;;;;;7.27;6.87;;;12.70;99.90;;;;;;4978690;28;20217;-77
2022/04/06 08:31:43;;;;;;;6.93;6.53;;;12.70;99.90;;;;;;4986577;28;20673;-77
2022/04/06 08:34:10;;;;;;;8.60;8.10;;;12.70;99.90;;;;;;4979417;28;20244;-76
2022/04/06 08:36:37;;;;;;;6.83;6.33;;;12.70;99.90;;;;;;4970809;28;20253;-78
2022/04/06 08:39:04;;;;;;;3.50;3.30;;;12.70;99.90;;;;;;4987041;28;20224;-78
2022/04/06 08:41:31;;;;;;;5.47;5.17;;;12.80;99.90;;;;;;4992534;28;20232;-77
2022/04/06 08:43:57;;;;;;;5.07;4.77;;;12.80;99.90;;;;;;4983786;28;20213;-77
2022/04/06 08:46:25;;;;;;;8.40;7.90;;;12.90;99.90;;;;;;4987997;28;20240;-77
2022/04/06 08:48:53;;;;;;;7.50;7.10;;;12.90;99.90;;;;;;4981679;28;20221;-77
2022/04/06 08:51:21;;;;;;;3.70;2.13;;;13.00;99.90;;;;;;4982694;28;20549;-79
2022/04/06 08:53:48;;;;;;;2.00;1.90;;;13.30;99.90;;;;;;4986347;28;20622;-80
2022/04/06 08:56:16;;;;;;;2.27;2.00;;;13.50;99.90;;;;;;4982593;28;20190;-80
2022/04/06 08:58:44;;;;;;;2.13;1.87;;;13.80;99.90;;;;;;4994798;28;20912;-79
2022/04/06 09:01:11;;;;;;;6.87;6.10;;;14.10;99.90;;;;;;4986580;28;20210;-78
2022/04/06 09:03:37;;;;;;;3.80;3.50;;;14.40;99.90;;;;;;4978095;28;20720;-77
2022/04/06 09:06:08;;;;;;;4.03;3.73;;;14.50;99.90;;;;;;4984953;28;20268;-77
2022/04/06 09:08:39;;;;;;;3.50;3.30;;;14.60;99.90;;;;;;4988489;28;20624;-76
2022/04/06 09:11:11;;;;;;;3.40;3.20;;;14.50;99.90;;;;;;4987980;28;20198;-78
2022/04/06 09:13:38;;;;;;;5.70;5.30;;;14.50;99.90;;;;;;4992390;28;20194;-77
2022/04/06 09:16:08;;;;;;;6.60;6.17;;;14.50;99.90;;;;;;4986843;28;20191;-78
2022/04/06 09:18:36;;;;;;;7.90;7.50;;;14.60;99.90;;;;;;4981264;28;20194;-78
2022/04/06 09:21:04;;;;;;;7.60;7.20;;;14.80;99.90;;;;;;4979467;28;20201;-78
2022/04/06 09:23:33;;;;;;;4.70;4.40;;;15.10;99.90;;;;;;4989586;28;20208;-77
2022/04/06 09:26:04;;;;;;;3.63;3.43;;;15.30;99.90;;;;;;4994789;28;20220;-77
2022/04/06 09:28:32;;;;;;;7.93;7.50;;;15.40;99.90;;;;;;4979841;28;20296;-78
2022/04/06 09:30:59;;;;;;;4.47;4.27;;;15.70;99.90;;;;;;4986580;28;20203;-78
2022/04/06 09:33:29;;;;;;;3.80;3.50;;;16.10;99.90;;;;;;4987713;28;20213;-78
2022/04/06 09:35:58;;;;;;;4.20;4.00;;;16.40;99.90;;;;;;4988351;28;20297;-77
2022/04/06 09:38:27;;;;;;;4.20;4.00;;;16.40;99.90;;;;;;4991351;28;20271;-78
2022/04/06 09:41:04;;;;;;;4.43;4.23;;;16.40;99.90;;;;;;4985705;28;20205;-79
2022/04/06 09:43:32;;;;;;;4.10;3.80;;;16.90;99.90;;;;;;4986950;28;20673;-77
2022/04/06 09:49:03;;;;;;;5.07;4.60;;;17.50;99.90;;;;;;4970741;28;20275;-77
2022/04/06 09:51:30;;;;;;;3.30;3.10;;;17.60;99.90;;;;;;4978743;28;20635;-78
2022/04/06 09:54:00;;;;;;;3.77;3.50;;;17.60;99.90;;;;;;4987393;28;20201;-78
2022/04/06 09:56:30;;;;;;;3.50;3.30;;;17.60;99.90;;;;;;4988145;28;20203;-77
2022/04/06 09:58:58;;;;;;;2.30;2.10;;;17.80;99.90;;;;;;4987127;28;20259;-77
2022/04/06 10:01:31;;;;;;;2.70;2.50;;;17.50;99.90;;;;;;4989753;28;20232;-78
2022/04/06 10:04:02;;;;;;;7.40;7.00;;;17.10;99.90;;;;;;4988197;28;20255;-78
2022/04/06 10:06:32;;;;;;;7.53;7.03;;;16.80;99.90;;;;;;4981701;28;20256;-80
2022/04/06 10:09:01;;;;;;;7.20;6.80;;;16.60;99.90;;;;;;4982691;28;20244;-77
2022/04/06 10:11:29;;;;;;;5.97;5.53;;;16.60;99.90;;;;;;4984540;28;20214;-78
2022/04/06 10:13:57;;;;;;;2.60;2.50;;;16.90;99.90;;;;;;4986558;28;20253;-78
2022/04/06 10:16:24;;;;;;;3.17;2.87;;;17.40;99.90;;;;;;4983990;28;20210;-78
2022/04/06 10:18:53;;;;;;;2.50;2.40;;;17.80;99.90;;;;;;4990360;28;20218;-80
2022/04/06 10:21:23;;;;;;;2.40;2.30;;;18.20;99.90;;;;;;4989992;28;20667;-79
2022/04/06 10:24:00;;;;;;;2.10;2.00;;;18.00;99.90;;;;;;4985899;28;20300;-79
2022/04/06 10:26:38;;;;;;;2.67;2.47;;;17.80;99.90;;;;;;4985243;28;20701;-80
2022/04/06 10:29:06;;;;;;;1.97;1.90;;;17.60;99.90;;;;;;4985975;28;20631;-79
2022/04/06 10:31:32;;;;;;;2.33;2.13;;;17.60;99.90;;;;;;4982750;28;20190;-80
2022/04/06 10:34:20;;;;;;;2.20;1.70;;;17.80;99.90;;;;;;4984628;28;20686;-80
2022/04/06 10:37:07;;;;;;;6.33;5.90;;;17.70;99.90;;;;;;4974437;28;20253;-80
2022/04/06 10:39:55;;;;;;;1.90;1.80;;;17.50;99.90;;;;;;4990323;28;20230;-79
2022/04/06 10:42:32;;;;;;;7.83;7.43;;;17.30;99.90;;;;;;4984263;28;20203;-80
2022/04/06 10:45:00;;;;;;;5.83;5.40;;;17.00;99.90;;;;;;4987687;28;20200;-79
2022/04/06 10:47:29;;;;;;;5.83;5.53;;;16.80;99.90;;;;;;4990028;28;20221;-78
2022/04/06 10:50:24;;;;;;;3.33;3.17;;;16.70;99.90;;;;;;4982459;28;20232;-78
2022/04/06 10:53:11;;;;;;;5.00;4.70;;;16.50;99.90;;;;;;4980245;28;20206;-78
2022/04/06 10:55:40;;;;;;;3.83;3.63;;;16.30;99.90;;;;;;4979945;28;20204;-79
2022/04/06 10:58:10;;;;;;;2.80;2.60;;;16.10;99.90;;;;;;4984369;28;20572;-78
2022/04/06 11:00:39;;;;;;;4.33;4.13;;;16.10;99.90;;;;;;4968801;28;20205;-79
2022/04/06 11:03:16;;;;;;;3.43;3.23;;;16.10;99.90;;;;;;4984324;28;20696;-79
2022/04/06 11:05:46;;;;;;;6.60;6.27;;;16.30;99.90;;;;;;4975291;28;20197;-78
2022/04/06 11:11:43;;;;;;;2.30;2.20;;;16.20;99.90;;;;;;4989060;28;20200;-79
2022/04/06 11:14:11;;;;;;;2.50;2.40;;;16.40;99.90;;;;;;4985837;28;20262;-79
2022/04/06 11:16:43;;;;;;;2.80;2.70;;;16.70;99.90;;;;;;4977612;28;20189;-79
2022/04/06 11:19:10;;;;;;;3.10;2.90;;;16.60;99.90;;;;;;4977550;28;20231;-79
2022/04/06 11:21:47;;;;;;;3.10;3.00;;;16.50;99.90;;;;;;4977323;28;20208;-78
2022/04/06 11:24:18;;;;;;;3.87;3.67;;;16.50;99.90;;;;;;4975939;28;20196;-79
2022/04/06 11:26:45;;;;;;;2.33;2.23;;;16.40;99.90;;;;;;4987044;28;20897;-78
2022/04/06 11:29:13;;;;;;;1.67;1.57;;;16.30;99.90;;;;;;4991479;28;20763;-79
2022/04/06 11:31:57;;;;;;;6.20;5.73;;;16.20;99.90;;;;;;4986906;28;20204;-78
2022/04/06 11:34:35;;;;;;;5.67;5.37;;;16.10;99.90;;;;;;4987582;28;20199;-79
2022/04/06 11:37:03;;;;;;;2.37;2.27;;;16.10;99.90;;;;;;4985190;28;20275;-79
2022/04/06 11:39:31;;;;;;;4.67;4.47;;;16.10;99.90;;;;;;4978435;28;20247;-79
2022/04/06 11:41:59;;;;;;;6.00;5.70;;;16.20;99.90;;;;;;4977950;28;20237;-78
2022/04/06 11:44:28;;;;;;;3.20;3.00;;;16.40;99.90;;;;;;4984687;28;20282;-78
2022/04/06 11:46:55;;;;;;;2.37;2.27;;;16.50;99.90;;;;;;4986486;28;20601;-78
2022/04/06 11:49:24;;;;;;;3.33;2.20;;;16.50;99.90;;;;;;4982290;28;20239;-79
2022/04/06 11:51:52;;;;;;;2.60;2.50;;;16.50;99.90;;;;;;4985717;28;20555;-79
2022/04/06 11:54:20;;;;;;;1.70;1.70;;;16.70;99.90;;;;;;4986563;28;20203;-77
2022/04/06 11:56:50;;;;;;;1.80;1.70;;;16.70;99.90;;;;;;4984754;28;20661;-79
2022/04/06 11:59:18;;;;;;;1.70;1.60;;;16.60;99.90;;;;;;4976365;28;20272;-79
2022/04/06 12:01:47;;;;;;;2.20;2.10;;;16.70;99.90;;;;;;4976450;28;20208;-79
2022/04/06 12:04:16;;;;;;;2.30;2.20;;;16.70;99.90;;;;;;4976984;28;20208;-77
2022/04/06 12:06:43;;;;;;;3.90;2.80;;;16.80;99.90;;;;;;4990896;28;20697;-78
2022/04/06 12:09:11;;;;;;;4.67;3.13;;;16.80;99.90;;;;;;4980203;28;20225;-77
2022/04/06 12:11:39;;;;;;;2.87;2.70;;;16.80;99.90;;;;;;4990193;28;20192;-79
2022/04/06 12:14:10;;;;;;;5.73;5.43;;;16.80;99.90;;;;;;4984527;28;20220;-78
2022/04/06 12:16:38;;;;;;;6.53;6.23;;;16.70;99.90;;;;;;4982558;28;20205;-77
2022/04/06 12:19:12;;;;;;;7.23;6.83;;;16.60;99.90;;;;;;4979896;28;20229;-79
2022/04/06 12:21:42;;;;;;;5.97;5.67;;;16.60;99.90;;;;;;4983646;28;20208;-79
2022/04/06 12:24:11;;;;;;;5.67;5.40;;;16.70;99.90;;;;;;4980903;28;20205;-78
2022/04/06 12:26:45;;;;;;;5.90;5.60;;;16.70;99.90;;;;;;4976269;28;20248;-78
2022/04/06 12:29:15;;;;;;;4.10;3.80;;;16.70;99.90;;;;;;4979950;28;20231;-78
2022/04/06 12:31:43;;;;;;;6.90;6.50;;;16.70;99.90;;;;;;4973084;28;20220;-79
2022/04/06 12:34:30;;;;;;;6.57;6.17;;;16.70;99.90;;;;;;4987613;28;20191;-78
2022/04/06 12:36:57;;;;;;;7.50;7.10;;;16.70;99.90;;;;;;4985682;28;20200;-78
2022/04/06 12:39:24;;;;;;;7.20;6.80;;;16.80;99.90;;;;;;4987961;28;20301;-79
2022/04/06 12:41:53;;;;;;;3.80;3.60;;;16.90;99.90;;;;;;4987997;28;20244;-78
2022/04/06 12:44:20;;;;;;;4.20;4.00;;;16.90;99.90;;;;;;4984016;28;20203;-78
2022/04/06 12:46:49;;;;;;;4.30;4.10;;;16.90;99.90;;;;;;4990215;28;20716;-78
2022/04/06 12:49:23;;;;;;;4.90;4.50;;;16.90;99.90;;;;;;4992344;28;20256;-79
2022/04/06 12:52:04;;;;;;;4.80;4.60;;;16.90;99.90;;;;;;4984875;28;20204;-79
2022/04/06 12:54:32;;;;;;;3.00;2.90;;;16.90;99.90;;;;;;4988210;28;20209;-79
2022/04/06 12:57:07;;;;;;;3.10;3.00;;;17.00;99.90;;;;;;4989313;28;20221;-79
2022/04/06 12:59:41;;;;;;;6.40;5.97;;;17.00;99.90;;;;;;4991182;28;20220;-79
2022/04/06 13:02:20;;;;;;;7.40;7.00;;;16.90;99.90;;;;;;4990905;28;20199;-79
2022/04/06 13:04:48;;;;;;;6.87;6.47;;;16.90;99.90;;;;;;4977481;28;20632;-80
2022/04/06 13:07:15;;;;;;;6.97;6.57;;;17.00;99.90;;;;;;4982994;28;20214;-79
2022/04/06 13:09:51;;;;;;;6.47;6.17;;;17.00;99.90;;;;;;4990102;28;20225;-80